Time;durP1;ratioP1;P1;durP2;ratioP2;P2;SDS_P1;SDS_P2;PMS_P1;PMS_P2;Temp;Humidity;BMP_temperature;BMP_pressure;BME280_temperature;BME280_humidity;BME280_pressure;Samples;Min_cycle;Max_cycle;Signal;HPM_P1;HPM_P2
2024/01/25 00:03:13;;;;;;;;;;;;;;;2.61;66.38;99967.91;5362402;22;19909;-83
2024/01/25 00:05:58;;;;;;;;;;;;;;;2.62;66.39;99964.34;5002764;28;19917;-83
2024/01/25 00:08:24;;;;;;;;;;;;;;;2.62;66.93;99963.53;5313046;23;19917;-82
2024/01/25 00:10:54;;;;;;;;;;;;;;;2.61;66.37;99959.25;5109498;23;19910;-84
2024/01/25 00:13:40;;;;;;;;;;;;;;;2.58;67.56;99946.44;5001902;28;19909;-82
2024/01/25 00:16:24;;;;;;;;;;;;;;;2.55;67.56;99937.09;5019233;28;19905;-82
2024/01/25 00:21:49;;;;;;;;;;;;;;;2.53;67.21;99952.03;5069386;23;19910;-82
2024/01/25 00:24:34;;;;;;;;;;;;;;;2.55;66.92;99935.31;5019144;28;19917;-82
2024/01/25 00:27:13;;;;;;;;;;;;;;;2.56;66.99;99925.72;4998536;28;19923;-82
2024/01/25 00:35:48;;;;;;;;;;;;;;;2.58;67.05;99870.88;5984570;23;19909;-84
2024/01/25 00:41:37;;;;;;;;;;;;;;;2.59;66.91;99862.09;5761926;23;19941;-83
2024/01/25 00:44:04;;;;;;;;;;;;;;;2.57;67.28;99867.44;5169780;22;19997;-85
2024/01/25 00:46:31;;;;;;;;;;;;;;;2.55;67.26;99859.72;4981139;28;19933;-82
2024/01/25 00:49:04;;;;;;;;;;;;;;;2.57;66.91;99861.38;4996030;28;19934;-82
2024/01/25 00:51:48;;;;;;;;;;;;;;;2.59;66.79;99864.69;5017034;23;19941;-82
2024/01/25 00:54:17;;;;;;;;;;;;;;;2.59;66.45;99880.34;5002061;28;19909;-82
2024/01/25 00:57:38;;;;;;;;;;;;;;;2.58;67.47;99879.50;5128536;23;19917;-84
2024/01/25 01:03:05;;;;;;;;;;;;;;;2.61;66.71;99868.03;5458562;22;19926;-83
2024/01/25 01:05:57;;;;;;;;;;;;;;;2.62;66.68;99854.03;5019836;23;19981;-83
2024/01/25 01:08:23;;;;;;;;;;;;;;;2.62;66.67;99856.66;5024611;23;19925;-83
2024/01/25 01:11:24;;;;;;;;;;;;;;;2.62;66.87;99847.03;4999746;28;19907;-82
2024/01/25 01:20:20;;;;;;;;;;;;;;;0.99;66.68;99617.50;4695338;22;11487436;-85
2024/01/25 01:40:03;;;;;;;;;;;;;;;2.51;66.54;99815.78;5407907;22;19922;-83
2024/01/25 01:45:04;;;;;;;;;;;;;;;2.47;66.87;99809.16;5271120;23;19920;-82
2024/01/25 01:47:44;;;;;;;;;;;;;;;2.45;66.58;99811.88;5021605;28;19910;-83
2024/01/25 01:50:12;;;;;;;;;;;;;;;2.48;66.40;99816.03;4987957;28;19925;-82
2024/01/25 01:55:23;;;;;;;;;;;;;;;2.44;66.47;99802.41;5370387;22;19916;-82
2024/01/25 01:58:30;;;;;;;;;;;;;;;2.49;66.95;99812.47;5041655;23;20439;-82
2024/01/25 02:01:04;;;;;;;;;;;;;;;2.43;66.62;99813.78;4990171;28;19942;-82
2024/01/25 02:03:32;;;;;;;;;;;;;;;2.41;66.47;99822.66;4947416;29;20328;-82
2024/01/25 02:06:05;;;;;;;;;;;;;;;2.39;66.91;99812.34;4921539;29;19898;-81
2024/01/25 02:08:35;;;;;;;;;;;;;;;2.36;66.61;99812.59;5436421;22;19933;-83
2024/01/25 02:17:50;;;;;;;;;;;;;;;2.37;66.82;99800.41;5421343;23;19909;-84
2024/01/25 02:38:28;;;;;;;;;;;;;;;2.29;67.06;99756.69;5889815;22;19923;-82
2024/01/25 02:58:20;;;;;;;;;;;;;;;2.26;67.36;99736.09;5003277;22;19910;-83
2024/01/25 03:09:10;;;;;;;;;;;;;;;2.28;67.14;99700.34;5711917;22;19939;-81
2024/01/25 03:14:20;;;;;;;;;;;;;;;2.30;66.51;99687.19;6005018;22;20178;-82
2024/01/25 03:19:39;;;;;;;;;;;;;;;2.25;66.95;99674.53;5270789;22;19933;-83
2024/01/25 03:24:43;;;;;;;;;;;;;;;2.22;67.32;99678.19;5424008;23;19916;-83
2024/01/25 03:30:07;;;;;;;;;;;;;;;2.30;67.14;99669.78;5527260;22;19910;-83
2024/01/25 03:35:47;;;;;;;;;;;;;;;2.33;66.69;99674.75;5278922;22;19909;-84
2024/01/25 03:43:46;;;;;;;;;;;;;;;2.22;66.96;99696.41;5660318;22;19910;-83
2024/01/25 03:51:42;;;;;;;;;;;;;;;2.20;66.49;99690.50;5214827;22;19925;-83
2024/01/25 04:11:06;;;;;;;;;;;;;;;2.21;66.46;99719.97;5266412;22;19910;-84
2024/01/25 04:14:00;;;;;;;;;;;;;;;2.20;66.72;99698.31;5019171;28;19933;-83
2024/01/25 04:21:43;;;;;;;;;;;;;;;2.26;65.90;99717.03;5945614;23;19929;-87
2024/01/25 04:24:21;;;;;;;;;;;;;;;2.25;66.17;99710.19;5038425;28;19932;-82
2024/01/25 04:29:54;;;;;;;;;;;;;;;2.23;66.08;99713.72;5294747;22;21037;-83
2024/01/25 04:34:58;;;;;;;;;;;;;;;2.16;66.61;99709.91;4995802;28;19926;-83
2024/01/25 04:39:58;;;;;;;;;;;;;;;2.14;66.26;99703.19;6045707;22;19931;-84
2024/01/25 04:54:11;;;;;;;;;;;;;;;2.10;66.19;99696.56;5003447;28;19916;-83
2024/01/25 04:57:21;;;;;;;;;;;;;;;2.04;66.90;99695.25;5466800;23;19933;-82
2024/01/25 05:00:00;;;;;;;;;;;;;;;2.02;66.43;99735.38;5235080;22;19926;-82
2024/01/25 05:02:33;;;;;;;;;;;;;;;2.04;65.93;99707.44;5002441;28;19911;-82
2024/01/25 05:05:03;;;;;;;;;;;;;;;1.98;66.53;99687.94;5002350;28;19913;-83
2024/01/25 05:07:58;;;;;;;;;;;;;;;1.99;66.37;99699.16;4985818;28;19907;-82
2024/01/25 05:10:30;;;;;;;;;;;;;;;2.01;66.61;99692.06;5002642;28;19906;-83
2024/01/25 05:16:10;;;;;;;;;;;;;;;2.04;66.43;99678.81;5002638;28;19933;-82
2024/01/25 05:18:41;;;;;;;;;;;;;;;2.08;66.74;99680.22;4986178;28;19910;-81
2024/01/25 05:21:07;;;;;;;;;;;;;;;2.08;66.51;99693.25;5593717;23;19960;-82
2024/01/25 05:23:33;;;;;;;;;;;;;;;1.75;66.78;99653.28;5953848;22;19928;-84
2024/01/25 05:29:12;;;;;;;;;;;;;;;2.13;66.02;99706.72;4986181;28;19925;-82
2024/01/25 05:32:00;;;;;;;;;;;;;;;2.15;66.42;99699.63;4994408;28;19997;-82
2024/01/25 05:37:46;;;;;;;;;;;;;;;2.17;65.96;99676.88;5001074;28;19929;-82
2024/01/25 05:48:51;;;;;;;;;;;;;;;2.26;65.53;99657.13;5629626;22;20912;-83
2024/01/25 05:51:23;;;;;;;;;;;;;;;2.25;66.19;99653.69;4984811;28;19917;-82
2024/01/25 05:53:52;;;;;;;;;;;;;;;2.28;66.52;99653.44;5036046;23;19917;-82
2024/01/25 05:56:18;;;;;;;;;;;;;;;2.29;66.12;99652.50;5109361;23;20019;-83
2024/01/25 06:01:24;;;;;;;;;;;;;;;2.35;66.32;99646.78;5139941;22;19916;-83
2024/01/25 06:03:55;;;;;;;;;;;;;;;2.36;65.66;99640.63;4984015;28;19926;-82
2024/01/25 06:09:28;;;;;;;;;;;;;;;2.42;66.05;99649.72;5016729;23;19940;-83
2024/01/25 06:11:55;;;;;;;;;;;;;;;2.46;65.77;99666.78;5020303;28;19949;-82
2024/01/25 06:14:48;;;;;;;;;;;;;;;2.51;65.63;99675.06;5004345;28;19916;-82
2024/01/25 06:17:14;;;;;;;;;;;;;;;2.71;65.06;99678.66;5019914;28;19930;-82
2024/01/25 06:19:46;;;;;;;;;;;;;;;2.84;65.22;99681.91;5013803;23;19911;-83
2024/01/25 06:22:41;;;;;;;;;;;;;;;2.99;64.93;99688.50;5064786;23;20645;-86
2024/01/25 06:25:13;;;;;;;;;;;;;;;3.07;64.38;99678.25;5000720;28;19910;-83
2024/01/25 06:27:38;;;;;;;;;;;;;;;3.00;64.82;99690.16;5026305;22;19953;-83
2024/01/25 06:30:04;;;;;;;;;;;;;;;2.98;64.80;99689.47;5020474;28;19980;-81
2024/01/25 06:32:29;;;;;;;;;;;;;;;2.97;65.33;99702.59;5057943;23;20311;-81
2024/01/25 06:34:55;;;;;;;;;;;;;;;2.99;64.91;99698.13;5033654;22;19910;-81
2024/01/25 06:37:20;;;;;;;;;;;;;;;3.02;65.10;99711.72;5020439;28;19905;-82
2024/01/25 06:39:49;;;;;;;;;;;;;;;3.04;65.17;99696.78;5020323;28;19922;-82
2024/01/25 06:42:44;;;;;;;;;;;;;;;3.03;65.04;99710.78;5020561;28;19981;-82
2024/01/25 06:45:23;;;;;;;;;;;;;;;3.05;65.00;99718.47;5019986;28;19929;-82
2024/01/25 06:48:16;;;;;;;;;;;;;;;3.07;65.54;99712.19;4980580;28;19923;-82
2024/01/25 06:51:14;;;;;;;;;;;;;;;3.10;65.47;99711.94;4980283;28;19966;-82
2024/01/25 06:53:45;;;;;;;;;;;;;;;3.12;65.35;99704.81;4979714;28;19933;-83
2024/01/25 06:56:10;;;;;;;;;;;;;;;3.13;65.42;99705.63;4963133;28;19898;-83
2024/01/25 06:58:36;;;;;;;;;;;;;;;3.15;64.94;99706.31;4980153;28;19957;-82
2024/01/25 07:01:04;;;;;;;;;;;;;;;3.14;65.41;99700.28;4964037;28;19922;-83
2024/01/25 07:03:29;;;;;;;;;;;;;;;3.16;65.23;99698.38;4964225;28;19906;-82
2024/01/25 07:05:56;;;;;;;;;;;;;;;3.17;65.61;99717.47;4979113;28;19981;-82
2024/01/25 07:08:43;;;;;;;;;;;;;;;3.18;65.27;99709.50;4979861;28;19923;-82
2024/01/25 07:11:11;;;;;;;;;;;;;;;3.21;65.02;99725.88;4974621;28;19918;-82
2024/01/25 07:13:38;;;;;;;;;;;;;;;3.25;64.15;99717.66;4944726;28;19922;-83
2024/01/25 07:16:37;;;;;;;;;;;;;;;3.27;64.50;99715.75;4960715;28;19934;-82
2024/01/25 07:19:08;;;;;;;;;;;;;;;3.24;64.85;99721.22;4960238;28;19918;-82
2024/01/25 07:21:34;;;;;;;;;;;;;;;3.21;64.90;99724.09;4937466;29;19918;-82
2024/01/25 07:24:07;;;;;;;;;;;;;;;3.24;65.52;99715.19;4939242;29;19960;-83
2024/01/25 07:26:32;;;;;;;;;;;;;;;3.28;67.05;99711.34;4940039;29;19923;-82
2024/01/25 07:28:59;;;;;;;;;;;;;;;3.53;66.65;99699.69;4939618;29;19931;-82
2024/01/25 07:31:27;;;;;;;;;;;;;;;3.88;67.47;99689.72;4919452;29;19915;-81
2024/01/25 07:33:57;;;;;;;;;;;;;;;4.21;66.23;99685.97;4941172;29;19979;-84
2024/01/25 07:36:29;;;;;;;;;;;;;;;4.46;68.86;99688.09;4941051;29;19974;-84
2024/01/25 07:38:58;;;;;;;;;;;;;;;4.71;67.08;99689.34;4953613;28;19919;-85
2024/01/25 07:41:23;;;;;;;;;;;;;;;4.90;66.55;99690.31;4955738;28;19919;-86
2024/01/25 07:43:48;;;;;;;;;;;;;;;5.10;67.01;99705.03;4958625;28;20497;-86
2024/01/25 07:46:14;;;;;;;;;;;;;;;5.27;66.40;99699.13;4944003;29;20438;-87
2024/01/25 07:48:40;;;;;;;;;;;;;;;5.47;64.76;99707.78;4962112;28;21123;-88
2024/01/25 07:51:11;;;;;;;;;;;;;;;5.56;63.48;99695.63;4938489;29;19918;-87
2024/01/25 07:53:36;;;;;;;;;;;;;;;5.42;63.67;99702.97;4953522;28;19919;-87
2024/01/25 07:56:01;;;;;;;;;;;;;;;5.36;63.82;99692.22;4968958;28;19925;-87
2024/01/25 07:58:30;;;;;;;;;;;;;;;5.28;64.22;99674.59;4953788;28;19907;-89
2024/01/25 08:00:55;;;;;;;;;;;;;;;5.31;64.59;99689.19;4936338;29;19910;-87
2024/01/25 08:03:20;;;;;;;;;;;;;;;5.35;64.38;99693.19;4953909;29;19918;-86
2024/01/25 08:05:46;;;;;;;;;;;;;;;5.47;64.94;99704.31;4960100;28;19953;-86
2024/01/25 08:08:11;;;;;;;;;;;;;;;5.56;63.65;99713.94;4971716;28;19914;-89
2024/01/25 08:10:37;;;;;;;;;;;;;;;5.61;63.62;99719.59;4972605;28;19922;-88
2024/01/25 08:13:02;;;;;;;;;;;;;;;5.69;63.70;99715.28;4972833;28;19914;-87
2024/01/25 08:15:28;;;;;;;;;;;;;;;5.67;63.97;99724.25;4965010;28;19915;-88
2024/01/25 08:17:53;;;;;;;;;;;;;;;5.66;63.92;99728.66;4956920;29;20328;-88
2024/01/25 08:20:18;;;;;;;;;;;;;;;5.63;64.91;99728.97;4971480;28;20386;-91
2024/01/25 08:22:44;;;;;;;;;;;;;;;5.65;63.98;99710.47;4975475;28;20412;-88
2024/01/25 08:25:09;;;;;;;;;;;;;;;5.61;65.18;99715.19;4972569;28;20296;-86
2024/01/25 08:27:35;;;;;;;;;;;;;;;5.64;64.78;99729.78;4959246;28;20013;-89
2024/01/25 08:30:00;;;;;;;;;;;;;;;5.69;64.96;99722.31;4976514;28;19925;-89
2024/01/25 08:32:25;;;;;;;;;;;;;;;5.72;64.33;99711.56;4972382;28;19997;-89
2024/01/25 08:34:51;;;;;;;;;;;;;;;5.78;63.82;99723.25;4976280;28;20300;-88
2024/01/25 08:37:16;;;;;;;;;;;;;;;5.82;65.10;99712.34;4959124;28;19930;-87
2024/01/25 08:39:43;;;;;;;;;;;;;;;5.96;65.33;99708.50;4976410;28;19914;-87
2024/01/25 08:42:08;;;;;;;;;;;;;;;6.13;65.04;99709.53;4976643;28;20376;-88
2024/01/25 08:44:33;;;;;;;;;;;;;;;6.27;64.80;99714.28;4958791;28;19929;-89
2024/01/25 08:46:59;;;;;;;;;;;;;;;6.45;65.37;99709.06;4959078;28;20384;-89
2024/01/25 08:49:24;;;;;;;;;;;;;;;6.59;65.21;99705.94;4976629;28;19918;-88
2024/01/25 08:51:50;;;;;;;;;;;;;;;6.79;64.35;99693.53;4975200;28;19914;-85
2024/01/25 08:54:15;;;;;;;;;;;;;;;7.00;63.70;99699.28;4958703;28;20320;-88
2024/01/25 08:56:40;;;;;;;;;;;;;;;7.25;62.30;99688.00;4964301;28;19919;-85
2024/01/25 08:59:07;;;;;;;;;;;;;;;7.47;61.78;99691.13;4955484;29;19918;-88
2024/01/25 09:01:32;;;;;;;;;;;;;;;7.69;61.04;99682.72;4956629;29;20384;-86
2024/01/25 09:04:02;;;;;;;;;;;;;;;7.88;59.86;99666.72;4956632;29;19981;-88
2024/01/25 09:06:27;;;;;;;;;;;;;;;8.02;60.30;99670.56;4955289;29;19911;-86
2024/01/25 09:08:53;;;;;;;;;;;;;;;8.15;59.69;99673.56;4972705;28;20319;-88
2024/01/25 09:11:18;;;;;;;;;;;;;;;8.31;59.12;99672.00;4976529;28;20013;-85
2024/01/25 09:13:45;;;;;;;;;;;;;;;8.41;58.97;99657.75;4970479;28;20422;-88
2024/01/25 09:16:10;;;;;;;;;;;;;;;8.58;57.62;99667.31;4956370;28;20395;-84
2024/01/25 09:18:35;;;;;;;;;;;;;;;8.71;56.86;99661.56;4939100;29;19915;-84
2024/01/25 09:21:01;;;;;;;;;;;;;;;8.82;57.08;99655.16;4956520;29;20008;-83
2024/01/25 09:23:26;;;;;;;;;;;;;;;8.97;55.79;99673.78;4939196;29;19977;-84
2024/01/25 09:25:51;;;;;;;;;;;;;;;9.03;55.98;99646.81;4939101;29;19914;-83
2024/01/25 09:28:17;;;;;;;;;;;;;;;9.13;56.49;99656.19;4938724;29;19922;-83
2024/01/25 09:30:42;;;;;;;;;;;;;;;9.20;55.67;99646.63;4938998;29;19914;-83
2024/01/25 09:33:07;;;;;;;;;;;;;;;9.30;56.36;99653.53;4955858;29;20402;-82
2024/01/25 09:35:33;;;;;;;;;;;;;;;9.36;54.57;99643.13;4938887;29;19926;-83
2024/01/25 09:37:58;;;;;;;;;;;;;;;9.42;54.74;99639.81;4956338;28;20392;-83
2024/01/25 09:40:24;;;;;;;;;;;;;;;9.50;53.73;99679.34;4955435;28;19958;-84
2024/01/25 09:42:52;;;;;;;;;;;;;;;9.64;54.70;99646.19;4957410;28;19968;-82
2024/01/25 09:45:18;;;;;;;;;;;;;;;9.71;52.79;99649.00;4972246;28;19922;-84
2024/01/25 09:47:47;;;;;;;;;;;;;;;9.79;51.80;99660.34;4968410;28;19918;-83
2024/01/25 09:50:14;;;;;;;;;;;;;;;9.86;51.33;99679.78;4980917;28;19918;-82
2024/01/25 09:52:39;;;;;;;;;;;;;;;9.96;52.40;99653.19;4994604;28;19914;-82
2024/01/25 09:55:06;;;;;;;;;;;;;;;10.01;52.32;99665.88;4975625;28;20442;-82
2024/01/25 09:57:35;;;;;;;;;;;;;;;10.06;53.27;99653.00;4976910;28;20406;-83
2024/01/25 10:00:00;;;;;;;;;;;;;;;10.13;51.22;99669.78;4990357;28;20325;-84
2024/01/25 10:02:25;;;;;;;;;;;;;;;10.18;51.56;99652.44;4971824;28;19941;-87
2024/01/25 10:04:53;;;;;;;;;;;;;;;10.24;49.50;99655.41;4962417;28;20323;-83
2024/01/25 10:07:38;;;;;;;;;;;;;;;10.29;50.21;99671.53;4964131;28;19918;-84
2024/01/25 10:10:05;;;;;;;;;;;;;;;10.33;49.23;99664.91;4951747;29;19929;-84
2024/01/25 10:12:30;;;;;;;;;;;;;;;10.38;50.77;99652.03;4955649;29;19918;-85
2024/01/25 10:14:55;;;;;;;;;;;;;;;10.42;50.05;99663.91;4979025;28;19922;-84
2024/01/25 10:17:21;;;;;;;;;;;;;;;10.44;48.37;99665.38;4974100;28;19918;-84
2024/01/25 10:19:46;;;;;;;;;;;;;;;10.49;48.75;99643.72;4957122;28;19960;-85
2024/01/25 10:22:12;;;;;;;;;;;;;;;10.55;49.95;99639.56;4958286;28;20381;-83
2024/01/25 10:24:38;;;;;;;;;;;;;;;10.60;49.32;99645.16;4993803;28;19922;-83
2024/01/25 10:27:03;;;;;;;;;;;;;;;10.66;48.79;99670.84;4970074;28;19929;-85
2024/01/25 10:29:29;;;;;;;;;;;;;;;10.71;48.66;99647.38;4973958;28;19918;-84
2024/01/25 10:31:54;;;;;;;;;;;;;;;10.72;48.47;99657.75;4956986;28;19938;-85
2024/01/25 10:34:20;;;;;;;;;;;;;;;10.75;49.04;99623.09;4974344;28;19918;-84
2024/01/25 10:36:46;;;;;;;;;;;;;;;10.76;48.87;99630.00;4969838;28;20319;-85
2024/01/25 10:39:14;;;;;;;;;;;;;;;10.77;49.90;99628.19;4971842;28;19981;-85
2024/01/25 10:41:40;;;;;;;;;;;;;;;10.74;48.98;99625.91;4968767;28;19961;-84
2024/01/25 10:44:06;;;;;;;;;;;;;;;10.68;48.70;99619.50;4948757;29;19918;-85
2024/01/25 10:46:32;;;;;;;;;;;;;;;10.69;48.70;99599.19;4962786;28;19957;-84
2024/01/25 10:48:58;;;;;;;;;;;;;;;10.71;48.45;99610.41;4974062;28;20392;-84
2024/01/25 10:51:24;;;;;;;;;;;;;;;10.73;48.96;99589.94;4972758;28;20380;-85
2024/01/25 10:53:50;;;;;;;;;;;;;;;10.71;48.93;99642.09;4974058;28;19914;-87
2024/01/25 10:56:16;;;;;;;;;;;;;;;10.71;47.97;99621.78;4956613;28;20411;-85
2024/01/25 10:58:41;;;;;;;;;;;;;;;10.73;48.21;99603.94;4972649;28;19920;-85
2024/01/25 11:01:13;;;;;;;;;;;;;;;10.79;48.29;99600.59;4970973;28;19945;-83
2024/01/25 11:03:39;;;;;;;;;;;;;;;10.84;47.83;99600.06;4955722;28;19922;-84
2024/01/25 11:06:09;;;;;;;;;;;;;;;10.82;47.21;99586.22;4977401;28;20414;-85
2024/01/25 11:08:37;;;;;;;;;;;;;;;10.84;47.12;99589.50;4957944;28;20005;-84
2024/01/25 11:11:03;;;;;;;;;;;;;;;10.91;47.80;99592.25;4973986;28;19914;-85
2024/01/25 11:13:29;;;;;;;;;;;;;;;10.95;46.66;99601.47;4956272;28;20310;-84
2024/01/25 11:15:55;;;;;;;;;;;;;;;10.99;46.98;99581.59;4981550;28;20314;-85
2024/01/25 11:18:24;;;;;;;;;;;;;;;11.04;46.30;99592.44;4959071;28;19941;-85
2024/01/25 11:20:49;;;;;;;;;;;;;;;11.05;46.06;99604.66;4969162;28;19994;-85
2024/01/25 11:23:16;;;;;;;;;;;;;;;11.08;45.95;99591.91;4971124;28;20392;-85
2024/01/25 11:25:43;;;;;;;;;;;;;;;11.11;46.03;99606.59;4951010;28;19919;-84
2024/01/25 11:28:09;;;;;;;;;;;;;;;11.12;45.74;99605.59;4964777;29;19981;-83
2024/01/25 11:30:35;;;;;;;;;;;;;;;11.12;45.44;99587.09;4958793;28;20411;-84
2024/01/25 11:33:04;;;;;;;;;;;;;;;11.07;45.56;99597.38;4969669;28;19914;-83
2024/01/25 11:35:29;;;;;;;;;;;;;;;11.01;44.72;99614.78;4972850;28;19924;-84
2024/01/25 11:37:54;;;;;;;;;;;;;;;10.98;45.60;99609.03;4958676;28;19922;-84
2024/01/25 11:40:20;;;;;;;;;;;;;;;10.89;45.78;99618.03;4948728;28;20308;-85
2024/01/25 11:42:49;;;;;;;;;;;;;;;10.81;45.06;99624.19;4955602;28;19969;-84
2024/01/25 11:45:15;;;;;;;;;;;;;;;10.82;46.32;99618.72;4977829;28;19918;-84
2024/01/25 11:47:41;;;;;;;;;;;;;;;10.82;44.89;99616.09;4962301;28;19965;-85
2024/01/25 11:50:07;;;;;;;;;;;;;;;10.83;45.79;99604.53;4965411;28;20418;-85
2024/01/25 11:52:33;;;;;;;;;;;;;;;10.87;46.68;99609.44;4954802;28;19928;-84
2024/01/25 11:55:01;;;;;;;;;;;;;;;10.88;45.30;99600.53;4973301;28;19920;-85
2024/01/25 11:57:28;;;;;;;;;;;;;;;10.92;46.34;99604.47;4964711;28;20323;-86
2024/01/25 11:59:53;;;;;;;;;;;;;;;10.92;45.66;99612.38;4978057;28;20034;-86
2024/01/25 12:02:19;;;;;;;;;;;;;;;10.95;45.79;99626.06;4974869;28;19913;-86
2024/01/25 12:04:46;;;;;;;;;;;;;;;10.93;45.28;99621.94;4974780;28;19918;-86
2024/01/25 12:07:11;;;;;;;;;;;;;;;10.95;44.96;99623.41;4967704;28;19992;-86
2024/01/25 12:09:36;;;;;;;;;;;;;;;10.94;45.16;99621.78;4969304;28;19922;-85
2024/01/25 12:12:03;;;;;;;;;;;;;;;10.94;44.84;99621.78;4962663;28;19921;-85
2024/01/25 12:14:28;;;;;;;;;;;;;;;11.03;45.36;99633.09;4958140;28;19925;-85
2024/01/25 12:16:57;;;;;;;;;;;;;;;11.03;44.59;99617.22;4954297;28;19918;-85
2024/01/25 12:19:22;;;;;;;;;;;;;;;11.05;44.09;99623.97;4988418;28;19918;-85
2024/01/25 12:21:48;;;;;;;;;;;;;;;11.05;43.88;99620.50;4983125;28;19925;-85
2024/01/25 12:24:13;;;;;;;;;;;;;;;11.05;44.40;99623.16;4971409;28;20323;-85
2024/01/25 12:26:38;;;;;;;;;;;;;;;11.04;43.58;99618.88;4955520;28;19918;-85
2024/01/25 12:29:04;;;;;;;;;;;;;;;11.05;42.70;99623.16;4968256;28;19918;-86
2024/01/25 12:31:30;;;;;;;;;;;;;;;11.03;43.24;99609.31;4963887;28;19918;-86
2024/01/25 12:33:55;;;;;;;;;;;;;;;11.05;43.10;99607.31;4972756;28;19925;-86
2024/01/25 12:36:20;;;;;;;;;;;;;;;11.05;42.59;99607.31;4971320;28;19929;-85
2024/01/25 12:38:48;;;;;;;;;;;;;;;11.06;43.33;99615.06;4972696;28;19918;-86
2024/01/25 12:41:13;;;;;;;;;;;;;;;11.06;43.06;99603.66;4955273;28;19937;-85
2024/01/25 12:43:39;;;;;;;;;;;;;;;11.06;43.01;99616.88;4973135;28;19918;-86
2024/01/25 12:46:04;;;;;;;;;;;;;;;11.06;43.54;99604.47;4956689;28;20812;-85
2024/01/25 12:48:29;;;;;;;;;;;;;;;11.05;42.55;99599.38;4970423;28;19918;-85
2024/01/25 12:50:55;;;;;;;;;;;;;;;11.04;43.92;99595.09;4955280;28;19922;-86
2024/01/25 12:53:20;;;;;;;;;;;;;;;11.03;43.85;99594.28;4982841;28;19953;-86
2024/01/25 12:55:45;;;;;;;;;;;;;;;11.02;43.70;99610.31;4969936;28;19918;-86
2024/01/25 12:58:11;;;;;;;;;;;;;;;10.98;43.75;99619.59;4952028;29;19914;-85
2024/01/25 13:00:36;;;;;;;;;;;;;;;10.98;44.27;99617.78;4952464;28;19918;-85
2024/01/25 13:03:01;;;;;;;;;;;;;;;10.99;44.50;99621.22;4949679;28;20532;-85
2024/01/25 13:05:27;;;;;;;;;;;;;;;10.94;43.94;99642.09;4954181;28;19926;-85
2024/01/25 13:07:52;;;;;;;;;;;;;;;10.92;44.65;99636.97;4970892;28;19925;-85
2024/01/25 13:10:17;;;;;;;;;;;;;;;10.91;44.79;99637.97;4970767;28;19918;-85
2024/01/25 13:12:43;;;;;;;;;;;;;;;10.87;45.02;99620.84;4974395;28;19914;-84
2024/01/25 13:15:08;;;;;;;;;;;;;;;10.87;45.77;99630.59;4969604;28;19915;-86
2024/01/25 13:17:34;;;;;;;;;;;;;;;10.85;45.83;99632.59;4972431;28;20311;-85
2024/01/25 13:19:59;;;;;;;;;;;;;;;10.84;46.17;99642.31;4974611;28;19914;-85
2024/01/25 13:22:25;;;;;;;;;;;;;;;10.76;45.85;99635.28;4954512;28;19929;-86
2024/01/25 13:24:50;;;;;;;;;;;;;;;10.76;45.84;99645.84;4958023;28;20347;-85
2024/01/25 13:27:16;;;;;;;;;;;;;;;10.75;46.80;99643.38;4955363;28;19957;-86
2024/01/25 13:29:41;;;;;;;;;;;;;;;10.70;47.16;99638.63;4945017;28;19918;-86
2024/01/25 13:32:07;;;;;;;;;;;;;;;10.71;46.67;99645.56;4960037;28;19929;-86
2024/01/25 13:34:32;;;;;;;;;;;;;;;10.71;46.94;99640.28;4955974;28;19922;-85
2024/01/25 13:36:58;;;;;;;;;;;;;;;10.68;47.08;99634.53;4958488;28;19922;-85
2024/01/25 13:39:23;;;;;;;;;;;;;;;10.65;46.82;99630.41;4958070;28;20288;-84
2024/01/25 13:41:50;;;;;;;;;;;;;;;10.66;46.65;99624.13;4989409;28;20032;-85
2024/01/25 13:44:15;;;;;;;;;;;;;;;10.66;46.41;99625.97;4953424;28;19993;-84
2024/01/25 13:46:40;;;;;;;;;;;;;;;10.62;45.88;99625.50;4962441;28;20388;-86
2024/01/25 13:49:06;;;;;;;;;;;;;;;10.60;46.24;99622.22;4966559;28;19918;-85
2024/01/25 13:51:31;;;;;;;;;;;;;;;10.60;46.32;99630.13;4969968;28;19925;-85
2024/01/25 13:53:56;;;;;;;;;;;;;;;10.59;46.72;99625.03;4975197;28;19918;-88
2024/01/25 13:56:21;;;;;;;;;;;;;;;10.59;46.34;99630.31;4973994;28;19914;-83
2024/01/25 13:58:47;;;;;;;;;;;;;;;10.57;45.99;99616.47;4957883;28;20016;-86
2024/01/25 14:01:12;;;;;;;;;;;;;;;10.53;46.10;99618.63;4995569;28;19914;-85
2024/01/25 14:03:37;;;;;;;;;;;;;;;10.55;46.38;99600.78;4977456;28;20442;-88
2024/01/25 14:06:09;;;;;;;;;;;;;;;10.55;46.10;99592.88;4956846;28;19928;-85
2024/01/25 14:08:34;;;;;;;;;;;;;;;10.56;45.62;99583.97;4973310;28;19918;-86
2024/01/25 14:11:00;;;;;;;;;;;;;;;10.57;45.68;99595.34;4959677;28;19924;-85
2024/01/25 14:13:25;;;;;;;;;;;;;;;10.56;45.22;99586.59;4956476;28;20005;-85
2024/01/25 14:15:50;;;;;;;;;;;;;;;10.57;45.29;99585.59;4956985;28;19914;-86
2024/01/25 14:18:15;;;;;;;;;;;;;;;10.58;45.07;99595.16;4972882;28;19941;-84
2024/01/25 14:20:41;;;;;;;;;;;;;;;10.59;45.66;99603.91;4973491;28;20069;-85
2024/01/25 14:23:06;;;;;;;;;;;;;;;10.59;46.44;99599.44;4973583;28;19919;-85
2024/01/25 14:25:32;;;;;;;;;;;;;;;10.58;46.38;99600.44;4974813;28;19906;-84
2024/01/25 14:27:57;;;;;;;;;;;;;;;10.57;45.94;99590.06;4956406;28;19997;-85
2024/01/25 14:30:22;;;;;;;;;;;;;;;10.53;45.03;99601.97;4978263;28;19924;-85
2024/01/25 14:32:47;;;;;;;;;;;;;;;10.49;44.81;99594.41;4964806;28;19974;-84
2024/01/25 14:35:13;;;;;;;;;;;;;;;10.52;45.74;99603.78;4954558;28;20352;-84
2024/01/25 14:37:38;;;;;;;;;;;;;;;10.48;46.07;99597.22;4955398;29;19918;-87
2024/01/25 14:40:04;;;;;;;;;;;;;;;10.48;46.08;99602.50;4949484;28;19922;-85
2024/01/25 14:42:29;;;;;;;;;;;;;;;10.44;45.83;99596.75;4960309;28;19926;-86
2024/01/25 14:44:54;;;;;;;;;;;;;;;10.45;46.17;99602.84;4952694;28;19918;-87
2024/01/25 14:47:22;;;;;;;;;;;;;;;10.42;45.90;99606.66;4954869;28;19928;-86
2024/01/25 14:49:47;;;;;;;;;;;;;;;10.40;45.88;99605.16;4958485;28;20005;-85
2024/01/25 14:52:13;;;;;;;;;;;;;;;10.34;45.54;99608.50;4975776;28;20459;-82
2024/01/25 14:54:38;;;;;;;;;;;;;;;10.28;46.50;99602.09;4971958;28;19924;-86
2024/01/25 14:57:04;;;;;;;;;;;;;;;10.31;46.25;99606.22;4981259;28;19925;-85
2024/01/25 14:59:29;;;;;;;;;;;;;;;10.26;45.28;99609.38;4978289;28;19930;-86
2024/01/25 15:01:54;;;;;;;;;;;;;;;10.25;46.15;99614.81;4956527;28;19922;-84
2024/01/25 15:04:19;;;;;;;;;;;;;;;10.25;46.74;99623.56;4972022;28;20411;-86
2024/01/25 15:06:45;;;;;;;;;;;;;;;10.21;46.62;99632.00;4972814;28;20017;-85
2024/01/25 15:09:10;;;;;;;;;;;;;;;10.12;46.52;99625.91;4969990;28;20375;-86
2024/01/25 15:11:35;;;;;;;;;;;;;;;10.13;47.42;99641.56;4952401;28;19919;-86
2024/01/25 15:14:01;;;;;;;;;;;;;;;10.03;46.90;99640.13;4959375;28;20009;-86
2024/01/25 15:16:26;;;;;;;;;;;;;;;10.01;47.12;99627.13;4967250;28;20013;-86
2024/01/25 15:18:51;;;;;;;;;;;;;;;9.93;47.38;99635.06;4967719;28;20009;-86
2024/01/25 15:21:17;;;;;;;;;;;;;;;9.92;47.35;99641.34;4972603;28;20020;-86
2024/01/25 15:23:42;;;;;;;;;;;;;;;9.89;47.31;99641.69;4954201;28;20308;-86
2024/01/25 15:26:07;;;;;;;;;;;;;;;9.83;47.69;99651.09;4972251;28;19936;-88
2024/01/25 15:28:34;;;;;;;;;;;;;;;9.77;47.53;99643.88;4954568;28;19914;-86
2024/01/25 15:31:00;;;;;;;;;;;;;;;9.74;48.54;99648.66;4958824;28;19960;-85
2024/01/25 15:33:25;;;;;;;;;;;;;;;9.72;47.84;99640.94;4969305;28;19957;-85
2024/01/25 15:35:50;;;;;;;;;;;;;;;9.67;48.38;99647.69;4973279;28;20394;-86
2024/01/25 15:38:17;;;;;;;;;;;;;;;9.62;48.17;99652.63;4958434;28;19969;-86
2024/01/25 15:40:43;;;;;;;;;;;;;;;9.54;48.16;99656.94;4963547;28;20021;-86
2024/01/25 15:43:08;;;;;;;;;;;;;;;9.51;48.41;99665.19;4970928;28;20000;-86
2024/01/25 15:45:34;;;;;;;;;;;;;;;9.52;48.21;99669.44;4967539;28;19929;-86
2024/01/25 15:47:59;;;;;;;;;;;;;;;9.50;48.61;99665.34;4955228;28;19918;-85
2024/01/25 15:50:24;;;;;;;;;;;;;;;9.47;48.67;99679.69;4954392;29;20360;-86
2024/01/25 15:52:50;;;;;;;;;;;;;;;9.44;49.29;99676.56;4954099;29;19922;-85
2024/01/25 15:55:15;;;;;;;;;;;;;;;9.40;48.80;99681.34;4962740;28;19965;-85
2024/01/25 15:57:40;;;;;;;;;;;;;;;9.37;48.83;99683.47;4973165;28;19914;-85
2024/01/25 16:00:06;;;;;;;;;;;;;;;9.36;48.78;99679.19;4973625;28;19914;-86
2024/01/25 16:02:32;;;;;;;;;;;;;;;9.37;49.17;99678.22;4972164;28;19953;-85
2024/01/25 16:04:57;;;;;;;;;;;;;;;9.36;49.37;99681.84;4973277;28;19958;-86
2024/01/25 16:07:22;;;;;;;;;;;;;;;9.35;48.60;99674.91;4973203;28;20012;-85